sensor_id;sensor_type;location;lat;lon;timestamp;pressure;altitude;pressure_sealevel;temperature;humidity
12664;BME280;6396;58.490;15.528;2023-02-18T00:00:54;97860.72;;;5.70;100.00
12664;BME280;6396;58.490;15.528;2023-02-18T00:03:22;97839.31;;;5.62;100.00
12664;BME280;6396;58.490;15.528;2023-02-18T00:05:49;97822.22;;;5.55;100.00
12664;BME280;6396;58.490;15.528;2023-02-18T00:08:15;97831.16;;;5.34;100.00
12664;BME280;6396;58.490;15.528;2023-02-18T00:10:44;97842.72;;;5.47;100.00
12664;BME280;6396;58.490;15.528;2023-02-18T00:13:10;97903.94;;;5.43;100.00
12664;BME280;6396;58.490;15.528;2023-02-18T00:15:38;97814.84;;;4.95;100.00
12664;BME280;6396;58.490;15.528;2023-02-18T00:18:05;97873.31;;;5.28;100.00
12664;BME280;6396;58.490;15.528;2023-02-18T00:20:32;97808.84;;;4.74;100.00
12664;BME280;6396;58.490;15.528;2023-02-18T00:23:00;97912.91;;;5.20;100.00
12664;BME280;6396;58.490;15.528;2023-02-18T00:25:27;97927.28;;;5.12;100.00
12664;BME280;6396;58.490;15.528;2023-02-18T00:27:56;97913.53;;;4.71;100.00
12664;BME280;6396;58.490;15.528;2023-02-18T00:30:22;97615.47;;;2.76;100.00
12664;BME280;6396;58.490;15.528;2023-02-18T00:32:49;97650.25;;;3.13;100.00
12664;BME280;6396;58.490;15.528;2023-02-18T00:35:16;97827.31;;;3.97;100.00
12664;BME280;6396;58.490;15.528;2023-02-18T00:37:43;97998.06;;;4.89;100.00
12664;BME280;6396;58.490;15.528;2023-02-18T00:40:10;98005.13;;;4.87;100.00
12664;BME280;6396;58.490;15.528;2023-02-18T00:42:37;97989.75;;;4.42;100.00
12664;BME280;6396;58.490;15.528;2023-02-18T00:45:06;97794.47;;;3.34;100.00
12664;BME280;6396;58.490;15.528;2023-02-18T00:47:33;97579.31;;;1.88;100.00
12664;BME280;6396;58.490;15.528;2023-02-18T00:50:00;97770.59;;;3.23;100.00
12664;BME280;6396;58.490;15.528;2023-02-18T00:52:27;97408.78;;;1.00;100.00
12664;BME280;6396;58.490;15.528;2023-02-18T00:54:54;97967.78;;;4.07;100.00
12664;BME280;6396;58.490;15.528;2023-02-18T00:57:20;98128.00;;;4.67;100.00
12664;BME280;6396;58.490;15.528;2023-02-18T00:59:47;98010.28;;;4.11;100.00
12664;BME280;6396;58.490;15.528;2023-02-18T01:02:15;97744.50;;;2.63;100.00
12664;BME280;6396;58.490;15.528;2023-02-18T01:04:42;97895.44;;;3.29;100.00
12664;BME280;6396;58.490;15.528;2023-02-18T01:07:09;98087.50;;;4.57;100.00
12664;BME280;6396;58.490;15.528;2023-02-18T01:09:36;98159.88;;;4.54;100.00
12664;BME280;6396;58.490;15.528;2023-02-18T01:12:03;98108.66;;;4.50;100.00
12664;BME280;6396;58.490;15.528;2023-02-18T01:14:30;98106.13;;;4.49;100.00
12664;BME280;6396;58.490;15.528;2023-02-18T01:16:57;98114.91;;;4.46;100.00
12664;BME280;6396;58.490;15.528;2023-02-18T01:19:25;97869.09;;;2.28;100.00
12664;BME280;6396;58.490;15.528;2023-02-18T01:21:51;98058.69;;;3.76;100.00
12664;BME280;6396;58.490;15.528;2023-02-18T01:24:18;98137.19;;;4.35;100.00
12664;BME280;6396;58.490;15.528;2023-02-18T01:26:45;98191.97;;;4.36;100.00
12664;BME280;6396;58.490;15.528;2023-02-18T01:29:12;98210.25;;;4.36;100.00
12664;BME280;6396;58.490;15.528;2023-02-18T01:31:38;97763.66;;;1.49;100.00
12664;BME280;6396;58.490;15.528;2023-02-18T01:34:05;98179.13;;;4.30;100.00
12664;BME280;6396;58.490;15.528;2023-02-18T01:36:34;98178.25;;;4.31;100.00
12664;BME280;6396;58.490;15.528;2023-02-18T01:39:00;98185.28;;;4.29;100.00
12664;BME280;6396;58.490;15.528;2023-02-18T01:41:27;97787.34;;;1.42;100.00
12664;BME280;6396;58.490;15.528;2023-02-18T01:44:13;98264.41;;;4.31;100.00
12664;BME280;6396;58.490;15.528;2023-02-18T01:46:41;97789.97;;;1.88;100.00
12664;BME280;6396;58.490;15.528;2023-02-18T01:49:08;98219.00;;;4.35;100.00
12664;BME280;6396;58.490;15.528;2023-02-18T01:51:40;98238.91;;;4.38;100.00
12664;BME280;6396;58.490;15.528;2023-02-18T01:54:12;98214.53;;;4.37;100.00
12664;BME280;6396;58.490;15.528;2023-02-18T01:56:45;98266.75;;;4.39;100.00
12664;BME280;6396;58.490;15.528;2023-02-18T01:59:17;98129.44;;;3.69;100.00
12664;BME280;6396;58.490;15.528;2023-02-18T02:01:45;98163.69;;;3.83;100.00
12664;BME280;6396;58.490;15.528;2023-02-18T02:04:13;98242.97;;;4.45;100.00
12664;BME280;6396;58.490;15.528;2023-02-18T02:06:41;98199.88;;;3.90;100.00
12664;BME280;6396;58.490;15.528;2023-02-18T02:09:10;98051.69;;;2.66;100.00
12664;BME280;6396;58.490;15.528;2023-02-18T02:14:42;98317.31;;;4.36;100.00
12664;BME280;6396;58.490;15.528;2023-02-18T02:17:17;97664.75;;;0.83;100.00
12664;BME280;6396;58.490;15.528;2023-02-18T02:23:09;98124.03;;;3.28;100.00
12664;BME280;6396;58.490;15.528;2023-02-18T02:25:58;98126.66;;;3.50;100.00
12664;BME280;6396;58.490;15.528;2023-02-18T02:28:57;98295.41;;;4.40;100.00
12664;BME280;6396;58.490;15.528;2023-02-18T02:31:51;98167.69;;;3.22;100.00
12664;BME280;6396;58.490;15.528;2023-02-18T02:37:25;98147.78;;;3.21;100.00
12664;BME280;6396;58.490;15.528;2023-02-18T02:40:04;98377.19;;;4.42;100.00
12664;BME280;6396;58.490;15.528;2023-02-18T02:42:39;98116.34;;;2.78;100.00
12664;BME280;6396;58.490;15.528;2023-02-18T02:45:15;98356.09;;;4.47;100.00
12664;BME280;6396;58.490;15.528;2023-02-18T02:47:49;98417.94;;;4.46;100.00
12664;BME280;6396;58.490;15.528;2023-02-18T02:50:24;98406.69;;;4.44;100.00
12664;BME280;6396;58.490;15.528;2023-02-18T02:52:57;98375.53;;;3.92;100.00
12664;BME280;6396;58.490;15.528;2023-02-18T02:55:25;98421.53;;;4.44;100.00
12664;BME280;6396;58.490;15.528;2023-02-18T02:57:53;98244.31;;;3.42;100.00
12664;BME280;6396;58.490;15.528;2023-02-18T03:00:30;98507.66;;;4.45;100.00
12664;BME280;6396;58.490;15.528;2023-02-18T03:03:21;97465.00;;;-1.46;100.00
12664;BME280;6396;58.490;15.528;2023-02-18T03:06:03;98363.34;;;3.93;100.00
12664;BME280;6396;58.490;15.528;2023-02-18T03:08:40;98237.03;;;3.03;100.00
12664;BME280;6396;58.490;15.528;2023-02-18T03:11:13;98444.13;;;4.45;100.00
12664;BME280;6396;58.490;15.528;2023-02-18T03:13:51;98340.63;;;3.72;100.00
12664;BME280;6396;58.490;15.528;2023-02-18T03:16:25;97976.34;;;1.63;100.00
12664;BME280;6396;58.490;15.528;2023-02-18T03:18:58;98333.78;;;3.92;100.00
12664;BME280;6396;58.490;15.528;2023-02-18T03:21:30;98365.59;;;3.54;100.00
12664;BME280;6396;58.490;15.528;2023-02-18T03:24:01;98458.25;;;4.39;100.00
12664;BME280;6396;58.490;15.528;2023-02-18T03:26:30;98302.56;;;3.41;100.00
12664;BME280;6396;58.490;15.528;2023-02-18T03:29:01;98361.06;;;3.84;100.00
12664;BME280;6396;58.490;15.528;2023-02-18T03:31:32;97848.44;;;0.76;100.00
12664;BME280;6396;58.490;15.528;2023-02-18T03:34:03;98152.25;;;2.44;100.00
12664;BME280;6396;58.490;15.528;2023-02-18T03:36:34;98515.81;;;4.36;100.00
12664;BME280;6396;58.490;15.528;2023-02-18T03:39:03;97914.78;;;0.30;100.00
12664;BME280;6396;58.490;15.528;2023-02-18T03:41:31;98480.91;;;4.39;100.00
12664;BME280;6396;58.490;15.528;2023-02-18T03:44:01;98577.59;;;4.37;100.00
12664;BME280;6396;58.490;15.528;2023-02-18T03:46:29;98409.72;;;3.86;100.00
12664;BME280;6396;58.490;15.528;2023-02-18T03:48:57;98210.72;;;2.60;100.00
12664;BME280;6396;58.490;15.528;2023-02-18T03:51:24;98580.19;;;4.37;100.00
12664;BME280;6396;58.490;15.528;2023-02-18T03:53:53;98336.84;;;3.31;100.00
12664;BME280;6396;58.490;15.528;2023-02-18T03:56:20;98478.56;;;3.82;100.00
12664;BME280;6396;58.490;15.528;2023-02-18T03:58:47;98300.34;;;2.80;100.00
12664;BME280;6396;58.490;15.528;2023-02-18T04:01:14;98278.88;;;2.46;100.00
12664;BME280;6396;58.490;15.528;2023-02-18T04:03:41;98263.31;;;2.45;100.00
12664;BME280;6396;58.490;15.528;2023-02-18T04:06:08;98621.34;;;4.31;100.00
12664;BME280;6396;58.490;15.528;2023-02-18T04:08:34;98438.00;;;3.48;100.00
12664;BME280;6396;58.490;15.528;2023-02-18T04:11:03;98555.19;;;4.30;100.00
12664;BME280;6396;58.490;15.528;2023-02-18T04:13:33;98524.47;;;3.88;100.00
12664;BME280;6396;58.490;15.528;2023-02-18T04:16:00;98494.31;;;3.53;100.00
12664;BME280;6396;58.490;15.528;2023-02-18T04:18:27;98553.88;;;4.19;100.00
12664;BME280;6396;58.490;15.528;2023-02-18T04:20:54;98654.66;;;4.24;100.00
12664;BME280;6396;58.490;15.528;2023-02-18T04:23:21;98515.97;;;3.83;100.00
12664;BME280;6396;58.490;15.528;2023-02-18T04:25:48;98581.72;;;4.18;100.00
12664;BME280;6396;58.490;15.528;2023-02-18T04:28:17;98416.81;;;3.04;100.00
12664;BME280;6396;58.490;15.528;2023-02-18T04:30:45;98641.03;;;4.15;100.00
12664;BME280;6396;58.490;15.528;2023-02-18T04:33:12;98046.31;;;0.57;100.00
12664;BME280;6396;58.490;15.528;2023-02-18T04:35:39;97915.03;;;-0.74;100.00
12664;BME280;6396;58.490;15.528;2023-02-18T04:38:06;98584.69;;;4.08;100.00
12664;BME280;6396;58.490;15.528;2023-02-18T04:40:34;98235.97;;;1.15;100.00
12664;BME280;6396;58.490;15.528;2023-02-18T04:43:01;98639.75;;;4.02;100.00
12664;BME280;6396;58.490;15.528;2023-02-18T04:45:29;98615.50;;;3.98;100.00
12664;BME280;6396;58.490;15.528;2023-02-18T04:47:56;98554.97;;;3.32;100.00
12664;BME280;6396;58.490;15.528;2023-02-18T04:50:23;98585.50;;;3.56;100.00
12664;BME280;6396;58.490;15.528;2023-02-18T04:52:49;98488.41;;;2.93;100.00
12664;BME280;6396;58.490;15.528;2023-02-18T04:55:16;98542.13;;;3.26;100.00
12664;BME280;6396;58.490;15.528;2023-02-18T04:57:43;98444.00;;;2.39;100.00
12664;BME280;6396;58.490;15.528;2023-02-18T05:00:14;98408.88;;;2.52;100.00
12664;BME280;6396;58.490;15.528;2023-02-18T05:02:42;98636.06;;;3.81;100.00
12664;BME280;6396;58.490;15.528;2023-02-18T05:05:10;98683.91;;;3.80;100.00
12664;BME280;6396;58.490;15.528;2023-02-18T05:07:37;98671.66;;;3.82;100.00
12664;BME280;6396;58.490;15.528;2023-02-18T05:10:05;98299.59;;;1.63;100.00
12664;BME280;6396;58.490;15.528;2023-02-18T05:12:32;98593.31;;;3.28;100.00
12664;BME280;6396;58.490;15.528;2023-02-18T05:14:59;98740.44;;;3.81;100.00
12664;BME280;6396;58.490;15.528;2023-02-18T05:17:26;98598.75;;;3.21;100.00
12664;BME280;6396;58.490;15.528;2023-02-18T05:19:54;98636.47;;;3.38;100.00
12664;BME280;6396;58.490;15.528;2023-02-18T05:22:21;98720.63;;;3.74;100.00
12664;BME280;6396;58.490;15.528;2023-02-18T05:24:47;98592.41;;;2.70;100.00
12664;BME280;6396;58.490;15.528;2023-02-18T05:27:14;98755.59;;;3.69;100.00
12664;BME280;6396;58.490;15.528;2023-02-18T05:29:41;98710.63;;;3.59;100.00
12664;BME280;6396;58.490;15.528;2023-02-18T05:32:08;98159.31;;;0.36;100.00
12664;BME280;6396;58.490;15.528;2023-02-18T05:34:35;98450.63;;;1.88;100.00
12664;BME280;6396;58.490;15.528;2023-02-18T05:37:03;97780.84;;;-2.35;100.00
12664;BME280;6396;58.490;15.528;2023-02-18T05:39:30;98156.13;;;0.25;100.00
12664;BME280;6396;58.490;15.528;2023-02-18T05:41:57;98532.19;;;1.85;100.00
12664;BME280;6396;58.490;15.528;2023-02-18T05:44:24;98642.75;;;2.70;100.00
12664;BME280;6396;58.490;15.528;2023-02-18T05:46:58;98819.38;;;3.59;100.00
12664;BME280;6396;58.490;15.528;2023-02-18T05:49:26;98765.47;;;3.58;100.00
12664;BME280;6396;58.490;15.528;2023-02-18T05:51:53;98484.53;;;1.50;100.00
12664;BME280;6396;58.490;15.528;2023-02-18T05:54:21;98563.66;;;2.08;100.00
12664;BME280;6396;58.490;15.528;2023-02-18T05:56:48;98276.25;;;0.64;100.00
12664;BME280;6396;58.490;15.528;2023-02-18T05:59:15;98597.94;;;2.25;100.00
12664;BME280;6396;58.490;15.528;2023-02-18T06:01:42;98563.69;;;1.75;100.00
12664;BME280;6396;58.490;15.528;2023-02-18T06:04:10;98029.81;;;-1.10;100.00
12664;BME280;6396;58.490;15.528;2023-02-18T06:06:36;98833.34;;;3.56;100.00
12664;BME280;6396;58.490;15.528;2023-02-18T06:09:04;98702.59;;;2.73;100.00
12664;BME280;6396;58.490;15.528;2023-02-18T06:11:38;97822.13;;;-2.33;100.00
12664;BME280;6396;58.490;15.528;2023-02-18T06:14:05;98816.22;;;3.46;100.00
12664;BME280;6396;58.490;15.528;2023-02-18T06:16:31;98697.41;;;2.72;100.00
12664;BME280;6396;58.490;15.528;2023-02-18T06:18:58;98679.50;;;2.60;100.00
12664;BME280;6396;58.490;15.528;2023-02-18T06:21:26;98001.03;;;-1.78;100.00
12664;BME280;6396;58.490;15.528;2023-02-18T06:23:52;98356.22;;;0.10;100.00
12664;BME280;6396;58.490;15.528;2023-02-18T06:26:19;98356.69;;;0.65;100.00
12664;BME280;6396;58.490;15.528;2023-02-18T06:28:56;97978.84;;;-1.89;100.00
12664;BME280;6396;58.490;15.528;2023-02-18T06:31:24;98467.03;;;1.21;100.00
12664;BME280;6396;58.490;15.528;2023-02-18T06:33:50;98906.75;;;3.42;100.00
12664;BME280;6396;58.490;15.528;2023-02-18T06:36:17;98527.00;;;1.50;100.00
12664;BME280;6396;58.490;15.528;2023-02-18T06:38:44;98627.78;;;2.12;100.00
12664;BME280;6396;58.490;15.528;2023-02-18T06:41:13;98858.94;;;3.42;100.00
12664;BME280;6396;58.490;15.528;2023-02-18T06:43:41;97979.56;;;-2.27;100.00
12664;BME280;6396;58.490;15.528;2023-02-18T06:46:09;98918.81;;;3.45;100.00
12664;BME280;6396;58.490;15.528;2023-02-18T06:48:36;98745.78;;;2.48;100.00
12664;BME280;6396;58.490;15.528;2023-02-18T06:51:04;98857.25;;;3.39;100.00
12664;BME280;6396;58.490;15.528;2023-02-18T06:53:31;98223.34;;;-0.39;100.00
12664;BME280;6396;58.490;15.528;2023-02-18T06:55:57;98930.25;;;3.39;100.00
12664;BME280;6396;58.490;15.528;2023-02-18T06:58:24;98979.84;;;3.38;100.00
12664;BME280;6396;58.490;15.528;2023-02-18T07:00:51;98916.50;;;3.34;100.00
12664;BME280;6396;58.490;15.528;2023-02-18T07:03:19;98747.91;;;2.66;100.00
12664;BME280;6396;58.490;15.528;2023-02-18T07:05:46;98238.13;;;-0.87;100.00
12664;BME280;6396;58.490;15.528;2023-02-18T07:08:13;98302.72;;;0.05;100.00
12664;BME280;6396;58.490;15.528;2023-02-18T07:10:40;98691.88;;;2.16;100.00
12664;BME280;6396;58.490;15.528;2023-02-18T07:13:08;98926.66;;;3.45;100.00
12664;BME280;6396;58.490;15.528;2023-02-18T07:15:35;98912.69;;;3.48;100.00
12664;BME280;6396;58.490;15.528;2023-02-18T07:18:01;98625.94;;;1.81;100.00
12664;BME280;6396;58.490;15.528;2023-02-18T07:20:50;98901.53;;;3.42;100.00
12664;BME280;6396;58.490;15.528;2023-02-18T07:23:20;98336.56;;;0.00;100.00
12664;BME280;6396;58.490;15.528;2023-02-18T07:25:47;98529.59;;;1.12;100.00
12664;BME280;6396;58.490;15.528;2023-02-18T07:28:15;98470.72;;;0.74;100.00
12664;BME280;6396;58.490;15.528;2023-02-18T07:30:42;99060.34;;;3.55;100.00
12664;BME280;6396;58.490;15.528;2023-02-18T07:33:09;98464.75;;;0.28;100.00
12664;BME280;6396;58.490;15.528;2023-02-18T07:35:37;98056.34;;;-1.42;100.00
12664;BME280;6396;58.490;15.528;2023-02-18T07:38:05;99048.03;;;3.60;100.00
12664;BME280;6396;58.490;15.528;2023-02-18T07:40:32;98611.97;;;1.85;100.00
12664;BME280;6396;58.490;15.528;2023-02-18T07:42:59;98594.09;;;1.71;100.00
12664;BME280;6396;58.490;15.528;2023-02-18T07:45:26;98604.13;;;1.86;100.00
12664;BME280;6396;58.490;15.528;2023-02-18T07:47:53;98939.94;;;3.70;100.00
12664;BME280;6396;58.490;15.528;2023-02-18T07:50:20;98447.25;;;1.15;100.00
12664;BME280;6396;58.490;15.528;2023-02-18T07:52:53;99079.16;;;4.04;100.00
12664;BME280;6396;58.490;15.528;2023-02-18T07:58:45;98566.53;;;2.32;100.00
12664;BME280;6396;58.490;15.528;2023-02-18T08:01:15;98987.19;;;4.55;100.00
12664;BME280;6396;58.490;15.528;2023-02-18T08:03:42;98428.53;;;1.38;100.00
12664;BME280;6396;58.490;15.528;2023-02-18T08:09:43;98036.59;;;-0.32;100.00
12664;BME280;6396;58.490;15.528;2023-02-18T08:12:11;98650.38;;;3.39;100.00
12664;BME280;6396;58.490;15.528;2023-02-18T08:14:38;98939.53;;;5.04;100.00
12664;BME280;6396;58.490;15.528;2023-02-18T08:17:06;98814.28;;;4.14;100.00
12664;BME280;6396;58.490;15.528;2023-02-18T08:19:33;99016.88;;;4.84;100.00
12664;BME280;6396;58.490;15.528;2023-02-18T08:22:01;98883.97;;;4.41;100.00
12664;BME280;6396;58.490;15.528;2023-02-18T08:24:28;98144.47;;;0.08;100.00
12664;BME280;6396;58.490;15.528;2023-02-18T08:26:55;98641.78;;;2.74;100.00
12664;BME280;6396;58.490;15.528;2023-02-18T08:29:23;98692.38;;;2.98;100.00
12664;BME280;6396;58.490;15.528;2023-02-18T08:31:50;98834.09;;;3.90;100.00
12664;BME280;6396;58.490;15.528;2023-02-18T08:34:19;98981.81;;;4.91;100.00
12664;BME280;6396;58.490;15.528;2023-02-18T08:36:46;98742.13;;;3.53;100.00
12664;BME280;6396;58.490;15.528;2023-02-18T08:39:13;98650.03;;;3.20;100.00
12664;BME280;6396;58.490;15.528;2023-02-18T08:41:39;99111.91;;;5.13;100.00
12664;BME280;6396;58.490;15.528;2023-02-18T08:44:06;98747.41;;;3.50;100.00
12664;BME280;6396;58.490;15.528;2023-02-18T08:46:35;98151.75;;;0.61;100.00
12664;BME280;6396;58.490;15.528;2023-02-18T08:49:02;98216.44;;;1.00;100.00
12664;BME280;6396;58.490;15.528;2023-02-18T08:51:29;98975.44;;;5.81;100.00
12664;BME280;6396;58.490;15.528;2023-02-18T08:53:56;99035.25;;;5.94;100.00
12664;BME280;6396;58.490;15.528;2023-02-18T08:56:23;98786.06;;;4.54;100.00
12664;BME280;6396;58.490;15.528;2023-02-18T08:58:51;98275.25;;;1.35;100.00
12664;BME280;6396;58.490;15.528;2023-02-18T09:01:19;98992.69;;;6.37;100.00
12664;BME280;6396;58.490;15.528;2023-02-18T09:03:47;98912.91;;;5.72;100.00
12664;BME280;6396;58.490;15.528;2023-02-18T09:06:14;98711.28;;;5.01;100.00
12664;BME280;6396;58.490;15.528;2023-02-18T09:08:41;98822.66;;;5.57;100.00
12664;BME280;6396;58.490;15.528;2023-02-18T09:11:10;98747.59;;;5.34;100.00
12664;BME280;6396;58.490;15.528;2023-02-18T09:13:37;98606.59;;;4.04;100.00
12664;BME280;6396;58.490;15.528;2023-02-18T09:16:09;98534.75;;;4.43;100.00
12664;BME280;6396;58.490;15.528;2023-02-18T09:18:36;98102.94;;;1.88;100.00
12664;BME280;6396;58.490;15.528;2023-02-18T09:21:08;99006.53;;;7.34;100.00
12664;BME280;6396;58.490;15.528;2023-02-18T09:23:37;98737.13;;;5.82;100.00
12664;BME280;6396;58.490;15.528;2023-02-18T09:26:05;98381.88;;;3.10;100.00
12664;BME280;6396;58.490;15.528;2023-02-18T09:28:32;98701.25;;;5.61;100.00
12664;BME280;6396;58.490;15.528;2023-02-18T10:04:14;98895.03;;;8.43;100.00
12664;BME280;6396;58.490;15.528;2023-02-18T10:06:44;99032.44;;;9.44;100.00
12664;BME280;6396;58.490;15.528;2023-02-18T10:09:18;98801.84;;;7.73;100.00
12664;BME280;6396;58.490;15.528;2023-02-18T10:11:48;98775.94;;;7.84;100.00
12664;BME280;6396;58.490;15.528;2023-02-18T10:37:50;98309.88;;;3.81;100.00
12664;BME280;6396;58.490;15.528;2023-02-18T10:40:26;99101.16;;;8.81;100.00
12664;BME280;6396;58.490;15.528;2023-02-18T10:43:20;99074.38;;;8.91;100.00
12664;BME280;6396;58.490;15.528;2023-02-18T10:46:01;99069.59;;;8.81;100.00
12664;BME280;6396;58.490;15.528;2023-02-18T10:49:00;98720.66;;;6.88;100.00
12664;BME280;6396;58.490;15.528;2023-02-18T10:51:31;98422.69;;;5.25;100.00
12664;BME280;6396;58.490;15.528;2023-02-18T10:54:01;99007.09;;;8.27;100.00
12664;BME280;6396;58.490;15.528;2023-02-18T10:56:40;98764.38;;;6.88;100.00
12664;BME280;6396;58.490;15.528;2023-02-18T10:59:12;98273.00;;;3.66;100.00
12664;BME280;6396;58.490;15.528;2023-02-18T11:01:41;98578.69;;;5.04;100.00
12664;BME280;6396;58.490;15.528;2023-02-18T11:04:14;98545.72;;;4.77;100.00
12664;BME280;6396;58.490;15.528;2023-02-18T11:07:03;98497.75;;;3.55;100.00
12664;BME280;6396;58.490;15.528;2023-02-18T11:09:52;98384.81;;;3.27;100.00
12664;BME280;6396;58.490;15.528;2023-02-18T11:12:42;99063.28;;;7.81;100.00
12664;BME280;6396;58.490;15.528;2023-02-18T11:15:23;98881.81;;;6.81;100.00
12664;BME280;6396;58.490;15.528;2023-02-18T11:17:56;98365.34;;;3.86;100.00
12664;BME280;6396;58.490;15.528;2023-02-18T11:20:33;98373.91;;;4.13;100.00
12664;BME280;6396;58.490;15.528;2023-02-18T11:23:19;98595.97;;;5.08;100.00
12664;BME280;6396;58.490;15.528;2023-02-18T11:26:06;98215.59;;;2.95;100.00
12664;BME280;6396;58.490;15.528;2023-02-18T11:28:41;98587.47;;;5.93;100.00
12664;BME280;6396;58.490;15.528;2023-02-18T11:31:16;99097.03;;;8.95;100.00
12664;BME280;6396;58.490;15.528;2023-02-18T11:33:48;98523.25;;;5.84;100.00
12664;BME280;6396;58.490;15.528;2023-02-18T11:36:22;99166.44;;;9.13;100.00
12664;BME280;6396;58.490;15.528;2023-02-18T11:38:52;99030.66;;;9.08;100.00
12664;BME280;6396;58.490;15.528;2023-02-18T11:41:30;98919.41;;;8.08;100.00
12664;BME280;6396;58.490;15.528;2023-02-18T11:43:59;98250.44;;;4.54;100.00
12664;BME280;6396;58.490;15.528;2023-02-18T11:46:33;98863.31;;;8.28;100.00
12664;BME280;6396;58.490;15.528;2023-02-18T11:49:40;98264.53;;;4.50;91.15
12664;BME280;6396;58.490;15.528;2023-02-18T11:52:16;98866.03;;;8.82;100.00
12664;BME280;6396;58.490;15.528;2023-02-18T11:54:59;98628.13;;;7.43;100.00
12664;BME280;6396;58.490;15.528;2023-02-18T11:57:28;98600.66;;;7.50;100.00
12664;BME280;6396;58.490;15.528;2023-02-18T11:59:56;98603.56;;;7.63;100.00
12664;BME280;6396;58.490;15.528;2023-02-18T12:02:30;98606.34;;;7.60;100.00
12664;BME280;6396;58.490;15.528;2023-02-18T12:05:03;98960.16;;;9.85;100.00
12664;BME280;6396;58.490;15.528;2023-02-18T12:07:49;98418.78;;;6.37;94.17
12664;BME280;6396;58.490;15.528;2023-02-18T12:10:53;98326.44;;;5.93;100.00
12664;BME280;6396;58.490;15.528;2023-02-18T12:13:41;98732.25;;;8.56;87.72
12664;BME280;6396;58.490;15.528;2023-02-18T12:16:28;98886.81;;;9.59;93.51
12664;BME280;6396;58.490;15.528;2023-02-18T12:19:07;98739.78;;;8.63;93.04
12664;BME280;6396;58.490;15.528;2023-02-18T12:21:44;98614.91;;;8.01;100.00
12664;BME280;6396;58.490;15.528;2023-02-18T12:24:24;99155.50;;;10.69;100.00
12664;BME280;6396;58.490;15.528;2023-02-18T12:27:03;98489.44;;;6.78;100.00
12664;BME280;6396;58.490;15.528;2023-02-18T12:29:51;98808.41;;;8.94;100.00
12664;BME280;6396;58.490;15.528;2023-02-18T12:32:30;98468.94;;;6.68;100.00
12664;BME280;6396;58.490;15.528;2023-02-18T12:35:12;99001.31;;;9.88;97.18
12664;BME280;6396;58.490;15.528;2023-02-18T12:37:59;99037.28;;;9.89;83.59
12664;BME280;6396;58.490;15.528;2023-02-18T12:40:43;99000.13;;;9.76;100.00
12664;BME280;6396;58.490;15.528;2023-02-18T12:43:36;99120.75;;;10.61;100.00
12664;BME280;6396;58.490;15.528;2023-02-18T12:46:31;99113.69;;;10.62;100.00
12664;BME280;6396;58.490;15.528;2023-02-18T12:49:21;99118.47;;;10.54;100.00
12664;BME280;6396;58.490;15.528;2023-02-18T12:52:05;99107.38;;;10.30;100.00
12664;BME280;6396;58.490;15.528;2023-02-18T12:54:53;99083.28;;;9.65;100.00
12664;BME280;6396;58.490;15.528;2023-02-18T12:57:38;99093.88;;;10.00;91.12
12664;BME280;6396;58.490;15.528;2023-02-18T13:00:27;99136.47;;;10.10;100.00
12664;BME280;6396;58.490;15.528;2023-02-18T13:03:15;99158.50;;;10.09;99.74
12664;BME280;6396;58.490;15.528;2023-02-18T13:05:56;99084.50;;;9.58;98.46
12664;BME280;6396;58.490;15.528;2023-02-18T13:08:35;98701.44;;;7.28;100.00
12664;BME280;6396;58.490;15.528;2023-02-18T13:11:13;99182.50;;;10.03;100.00
12664;BME280;6396;58.490;15.528;2023-02-18T13:13:47;99049.88;;;9.10;100.00
12664;BME280;6396;58.490;15.528;2023-02-18T13:16:17;99200.97;;;9.84;100.00
12664;BME280;6396;58.490;15.528;2023-02-18T13:18:55;99021.34;;;9.00;100.00
12664;BME280;6396;58.490;15.528;2023-02-18T13:21:25;99097.84;;;9.35;100.00
12664;BME280;6396;58.490;15.528;2023-02-18T13:23:56;99096.16;;;9.34;100.00
12664;BME280;6396;58.490;15.528;2023-02-18T13:26:24;98900.00;;;8.11;100.00
12664;BME280;6396;58.490;15.528;2023-02-18T13:29:02;99103.03;;;9.18;100.00
12664;BME280;6396;58.490;15.528;2023-02-18T13:31:43;99250.47;;;9.58;100.00
12664;BME280;6396;58.490;15.528;2023-02-18T13:34:23;98434.25;;;4.98;100.00
12664;BME280;6396;58.490;15.528;2023-02-18T13:37:02;98372.47;;;4.06;100.00
12664;BME280;6396;58.490;15.528;2023-02-18T13:39:31;98924.78;;;7.85;100.00
12664;BME280;6396;58.490;15.528;2023-02-18T13:42:29;99115.69;;;8.89;100.00
12664;BME280;6396;58.490;15.528;2023-02-18T13:47:46;99025.84;;;8.18;100.00
12664;BME280;6396;58.490;15.528;2023-02-18T13:50:29;99042.88;;;8.30;100.00
12664;BME280;6396;58.490;15.528;2023-02-18T13:55:45;98775.13;;;6.60;100.00
12664;BME280;6396;58.490;15.528;2023-02-18T13:58:19;98684.88;;;6.24;100.00
12664;BME280;6396;58.490;15.528;2023-02-18T14:00:49;99113.72;;;8.54;100.00
12664;BME280;6396;58.490;15.528;2023-02-18T14:03:35;99184.28;;;8.86;100.00
12664;BME280;6396;58.490;15.528;2023-02-18T14:06:23;99195.09;;;8.79;100.00
12664;BME280;6396;58.490;15.528;2023-02-18T14:08:50;99196.63;;;8.84;100.00
12664;BME280;6396;58.490;15.528;2023-02-18T14:11:40;98494.00;;;4.37;100.00
12664;BME280;6396;58.490;15.528;2023-02-18T14:17:28;99207.06;;;8.66;100.00
12664;BME280;6396;58.490;15.528;2023-02-18T14:20:32;99047.06;;;7.27;100.00
12664;BME280;6396;58.490;15.528;2023-02-18T14:23:40;99199.56;;;8.35;100.00
12664;BME280;6396;58.490;15.528;2023-02-18T14:26:16;99320.38;;;8.38;100.00
12664;BME280;6396;58.490;15.528;2023-02-18T14:28:49;98959.63;;;6.10;100.00
12664;BME280;6396;58.490;15.528;2023-02-18T14:31:29;98674.06;;;4.94;100.00
12664;BME280;6396;58.490;15.528;2023-02-18T14:34:35;98920.81;;;6.44;100.00
12664;BME280;6396;58.490;15.528;2023-02-18T14:37:19;98504.53;;;3.85;100.00
12664;BME280;6396;58.490;15.528;2023-02-18T14:40:00;98677.47;;;4.45;100.00
12664;BME280;6396;58.490;15.528;2023-02-18T14:42:39;99257.66;;;8.06;100.00
12664;BME280;6396;58.490;15.528;2023-02-18T14:45:16;98436.94;;;3.27;100.00
12664;BME280;6396;58.490;15.528;2023-02-18T14:48:01;99293.03;;;7.96;100.00